Terminal Aerodrome Forecast
Issued by NWS

Home | Current Version | Previous Version | Text Only | Print | Product List | Glossary Off
Versions: 1 2 3 4 5 6 7 8 9 10 11 12 13 14 15 16 17 18 19 20 21 22 23 24 25 26 27 28 29 30 31 32 33 34

000
FTUS43 KLOT 291120
TAFORD
TAF
KORD 291120Z 2912/3018 VRB03KT 4SM BR VCSH SCT008 BKN012
      TEMPO 2912/2914 3SM -SHRA
     FM291400 08006KT P6SM SCT012 BKN018
     FM291800 07006KT P6SM VCSH SCT020 BKN035
     FM300000 15004KT P6SM BKN030 BKN250
     FM300800 21005KT 5SM -SHRA BR BKN010 OVC018
     FM301400 30008KT P6SM VCSH BKN035=

USA.gov is the U.S. government's official web portal to all federal, state and local government web resources and services.